Time;durP1;ratioP1;P1;durP2;ratioP2;P2;SDS_P1;SDS_P2;PMS_P1;PMS_P2;Temp;Humidity;BMP_temperature;BMP_pressure;BME280_temperature;BME280_humidity;BME280_pressure;Samples;Min_cycle;Max_cycle;Signal;HPM_P1;HPM_P2
2021/08/20 00:01:41;;;;;;;5.72;3.42;;;23.00;70.70;;;;;;4982218;28;20517;-92
2021/08/20 00:04:07;;;;;;;7.25;3.17;;;23.10;70.80;;;;;;4968418;28;20390;-91
2021/08/20 00:06:34;;;;;;;4.78;3.28;;;23.00;71.10;;;;;;4983863;28;20030;-90
2021/08/20 00:09:03;;;;;;;4.72;3.05;;;23.00;71.30;;;;;;4981955;28;20129;-89
2021/08/20 00:11:30;;;;;;;6.85;3.60;;;23.10;71.30;;;;;;4964805;28;20038;-88
2021/08/20 00:13:56;;;;;;;4.68;3.60;;;23.10;71.50;;;;;;4968295;28;20137;-90
2021/08/20 00:16:22;;;;;;;4.90;3.22;;;23.10;70.80;;;;;;4985828;28;20049;-88
2021/08/20 00:18:48;;;;;;;5.45;3.53;;;23.00;71.20;;;;;;4986326;28;20101;-88
2021/08/20 00:21:14;;;;;;;6.07;3.90;;;23.00;71.60;;;;;;4969420;28;20084;-86
2021/08/20 00:23:42;;;;;;;7.28;3.50;;;23.00;71.70;;;;;;4984831;28;20034;-87
2021/08/20 00:26:08;;;;;;;7.03;4.05;;;22.90;72.10;;;;;;4984784;28;20606;-88
2021/08/20 00:28:36;;;;;;;6.97;3.47;;;22.90;72.60;;;;;;4985147;28;20501;-87
2021/08/20 00:31:04;;;;;;;5.57;3.60;;;22.90;72.90;;;;;;4968560;28;20568;-87
2021/08/20 00:33:34;;;;;;;6.25;3.70;;;22.90;73.20;;;;;;4984996;28;20077;-88
2021/08/20 00:36:01;;;;;;;8.85;3.75;;;22.80;73.40;;;;;;5002146;28;20042;-87
2021/08/20 00:38:28;;;;;;;4.38;3.58;;;22.80;73.70;;;;;;4984744;28;20061;-88
2021/08/20 00:40:55;;;;;;;6.75;4.20;;;22.80;74.10;;;;;;4965151;28;20030;-88
2021/08/20 00:43:22;;;;;;;8.07;3.53;;;22.80;74.40;;;;;;4965275;28;20038;-89
2021/08/20 00:46:29;;;;;;;;;;;;;;;;;;;;;
2021/08/20 00:48:57;;;;;;;6.90;3.47;;;22.80;74.60;;;;;;4964487;28;20477;-94
2021/08/20 00:51:25;;;;;;;5.57;3.85;;;22.80;74.70;;;;;;5145462;23;20160;-89
2021/08/20 00:53:52;;;;;;;5.40;3.65;;;22.80;74.30;;;;;;5041113;28;20045;-87
2021/08/20 00:56:19;;;;;;;6.15;3.80;;;22.70;73.50;;;;;;5024010;28;20103;-88
2021/08/20 00:58:47;;;;;;;4.97;3.65;;;22.80;74.50;;;;;;5024488;28;20036;-93
2021/08/20 01:01:13;;;;;;;5.55;3.90;;;22.70;74.90;;;;;;5025590;28;20041;-93
2021/08/20 01:03:39;;;;;;;7.75;3.83;;;22.70;74.80;;;;;;5026616;28;20033;-95
2021/08/20 01:06:06;;;;;;;8.73;3.67;;;22.70;74.90;;;;;;5042590;28;20061;-94
2021/08/20 01:17:09;;;;;;;6.45;3.60;;;22.60;75.00;;;;;;5843733;23;20277;-94
2021/08/20 01:19:38;;;;;;;6.47;3.63;;;22.50;75.40;;;;;;4974026;28;20107;-95
2021/08/20 01:22:11;;;;;;;6.97;4.00;;;22.50;75.70;;;;;;5146763;23;20053;-88
2021/08/20 01:27:37;;;;;;;8.97;3.90;;;22.50;75.40;;;;;;5950413;23;20042;-95
2021/08/20 01:30:07;;;;;;;6.28;4.15;;;22.50;75.60;;;;;;4953465;29;20075;-96
2021/08/20 01:32:36;;;;;;;9.70;4.10;;;22.40;75.80;;;;;;4968435;29;20066;-96
2021/08/20 01:35:06;;;;;;;6.15;3.63;;;22.40;75.90;;;;;;4972867;28;20039;-96
2021/08/20 01:37:32;;;;;;;5.95;3.70;;;22.40;76.30;;;;;;4961485;28;20035;-89
2021/08/20 01:40:02;;;;;;;7.50;3.92;;;22.40;76.30;;;;;;4946885;29;20023;-91
2021/08/20 01:42:27;;;;;;;8.10;4.38;;;22.40;76.20;;;;;;4948844;29;20067;-89
2021/08/20 01:44:54;;;;;;;6.60;3.90;;;22.30;75.70;;;;;;4943708;29;20039;-90
2021/08/20 01:47:19;;;;;;;7.55;3.63;;;22.30;75.10;;;;;;4942349;29;20032;-89
2021/08/20 01:49:46;;;;;;;5.20;3.78;;;22.30;76.00;;;;;;4941716;29;20126;-90
2021/08/20 01:52:13;;;;;;;5.03;3.97;;;22.30;76.40;;;;;;4941730;29;20089;-89
2021/08/20 01:54:39;;;;;;;5.32;3.78;;;22.30;76.00;;;;;;4941549;29;20043;-91
2021/08/20 01:57:06;;;;;;;5.75;4.13;;;22.30;76.50;;;;;;4941882;29;20070;-90
2021/08/20 01:59:33;;;;;;;7.32;3.90;;;22.30;76.80;;;;;;4944863;29;20106;-90
2021/08/20 02:01:59;;;;;;;6.03;3.60;;;22.30;77.10;;;;;;4944878;29;20031;-89
2021/08/20 02:04:26;;;;;;;7.28;3.63;;;22.30;76.90;;;;;;4945092;29;20035;-88
2021/08/20 02:06:55;;;;;;;7.72;4.35;;;22.30;77.00;;;;;;4945160;29;20035;-92
2021/08/20 02:09:21;;;;;;;5.93;3.65;;;22.30;77.30;;;;;;4948079;29;20035;-93
2021/08/20 02:11:51;;;;;;;7.68;4.28;;;22.30;76.30;;;;;;4962878;28;20061;-94
2021/08/20 02:14:20;;;;;;;5.95;4.00;;;22.40;76.00;;;;;;4963721;28;20050;-94
2021/08/20 02:16:46;;;;;;;5.93;4.05;;;22.40;76.60;;;;;;4947137;29;20047;-94
2021/08/20 02:19:16;;;;;;;9.30;4.32;;;22.30;76.10;;;;;;4963332;28;20046;-92
2021/08/20 02:21:42;;;;;;;8.95;3.97;;;22.30;75.00;;;;;;4962921;28;20050;-94
2021/08/20 02:24:17;;;;;;;6.78;4.03;;;22.30;75.00;;;;;;4943617;29;20024;-93
2021/08/20 02:26:46;;;;;;;5.60;3.88;;;22.30;76.60;;;;;;4943622;29;20039;-92
2021/08/20 02:29:12;;;;;;;6.88;3.72;;;22.30;76.80;;;;;;4944966;29;20063;-92
2021/08/20 02:31:38;;;;;;;7.85;3.42;;;22.30;77.20;;;;;;4944625;29;20043;-95
2021/08/20 02:34:04;;;;;;;4.30;3.40;;;22.40;77.30;;;;;;4929239;29;20040;-95
2021/08/20 02:36:30;;;;;;;5.15;3.60;;;22.40;77.00;;;;;;4942635;29;20054;-95
2021/08/20 02:38:56;;;;;;;5.85;3.92;;;22.50;76.70;;;;;;5106237;23;20066;-96
2021/08/20 02:41:24;;;;;;;6.00;3.95;;;22.50;76.50;;;;;;4965363;28;20045;-95
2021/08/20 02:43:51;;;;;;;5.72;3.92;;;22.50;76.50;;;;;;4965832;28;20371;-96
2021/08/20 02:46:24;;;;;;;5.22;4.00;;;22.50;76.20;;;;;;4966718;28;20101;-95
2021/08/20 02:48:50;;;;;;;6.70;3.97;;;22.50;76.30;;;;;;4981110;28;20042;-92
2021/08/20 02:51:16;;;;;;;8.52;4.68;;;22.50;76.50;;;;;;4963346;28;20153;-91
2021/08/20 02:53:42;;;;;;;6.82;3.65;;;22.50;76.70;;;;;;4963085;28;20041;-93
2021/08/20 02:56:11;;;;;;;5.88;4.15;;;22.50;76.60;;;;;;4979137;28;20513;-88
2021/08/20 02:58:57;;;;;;;8.00;4.60;;;22.50;76.60;;;;;;4978181;28;20042;-85
2021/08/20 03:01:24;;;;;;;13.07;5.00;;;22.50;76.30;;;;;;4979728;28;20038;-85
2021/08/20 03:03:52;;;;;;;8.13;4.68;;;22.50;76.20;;;;;;4962237;28;20074;-85
2021/08/20 03:06:22;;;;;;;10.00;4.57;;;22.50;75.60;;;;;;4962463;28;20031;-85
2021/08/20 03:08:48;;;;;;;7.20;4.63;;;22.40;75.90;;;;;;4962023;28;20102;-85
2021/08/20 03:11:16;;;;;;;10.50;4.30;;;22.50;75.90;;;;;;4963086;28;20075;-88
2021/08/20 03:13:42;;;;;;;9.77;4.07;;;22.50;76.10;;;;;;4963484;28;20051;-88
2021/08/20 03:16:08;;;;;;;8.05;4.88;;;22.50;76.60;;;;;;4980576;28;20686;-87
2021/08/20 03:18:34;;;;;;;9.52;4.57;;;22.60;75.90;;;;;;4963247;28;20045;-87
2021/08/20 03:21:07;;;;;;;6.57;4.22;;;22.60;76.30;;;;;;4978187;28;20442;-87
2021/08/20 03:23:44;;;;;;;6.35;4.38;;;22.60;76.50;;;;;;4963756;28;20421;-88
2021/08/20 03:26:10;;;;;;;5.05;4.13;;;22.70;76.20;;;;;;4962281;28;20039;-89
2021/08/20 03:28:45;;;;;;;7.35;4.22;;;22.70;76.20;;;;;;4975504;28;20039;-88
2021/08/20 03:31:11;;;;;;;7.05;4.18;;;22.70;76.40;;;;;;4975688;28;20066;-89
2021/08/20 03:33:40;;;;;;;7.72;4.38;;;22.70;76.40;;;;;;4960215;28;20488;-88
2021/08/20 03:36:15;;;;;;;8.68;4.38;;;22.70;75.80;;;;;;4975594;28;20064;-87
2021/08/20 03:38:42;;;;;;;8.23;4.25;;;22.70;76.10;;;;;;4975589;28;20069;-87
2021/08/20 03:41:09;;;;;;;8.75;4.25;;;22.80;76.00;;;;;;4975925;28;20030;-88
2021/08/20 03:43:55;;;;;;;8.15;4.47;;;22.90;75.70;;;;;;4957115;29;20073;-88
2021/08/20 03:46:23;;;;;;;7.72;4.20;;;22.80;75.90;;;;;;4956504;28;20038;-89
2021/08/20 03:48:50;;;;;;;6.15;4.57;;;22.80;75.90;;;;;;4940892;29;20039;-90
2021/08/20 03:51:16;;;;;;;7.55;4.70;;;22.80;76.00;;;;;;4956593;28;20057;-89
2021/08/20 03:53:42;;;;;;;8.65;4.85;;;22.90;75.80;;;;;;4937411;29;20478;-86
2021/08/20 03:56:08;;;;;;;8.27;5.00;;;22.90;75.80;;;;;;4956358;28;20050;-87
2021/08/20 03:58:40;;;;;;;8.13;5.15;;;22.80;75.40;;;;;;4974058;28;20122;-86
2021/08/20 04:01:10;;;;;;;8.32;5.10;;;22.90;75.40;;;;;;4974118;28;20053;-92
2021/08/20 04:03:38;;;;;;;10.70;5.55;;;22.90;75.00;;;;;;4975153;28;20031;-89
2021/08/20 04:06:16;;;;;;;9.35;4.93;;;22.90;74.40;;;;;;4980846;28;20050;-88
2021/08/20 04:08:42;;;;;;;10.75;5.75;;;22.90;74.30;;;;;;4957154;28;20067;-94
2021/08/20 04:11:26;;;;;;;11.52;5.75;;;22.90;74.60;;;;;;4982506;28;20054;-92
2021/08/20 04:14:18;;;;;;;9.20;4.78;;;22.90;74.60;;;;;;4971373;28;20468;-89
2021/08/20 04:16:45;;;;;;;7.00;5.13;;;23.10;75.00;;;;;;4974705;28;20129;-89
2021/08/20 04:19:11;;;;;;;9.27;5.00;;;23.00;74.10;;;;;;4959664;28;20058;-92
2021/08/20 04:21:38;;;;;;;10.00;4.55;;;23.10;74.00;;;;;;4961363;28;20054;-92
2021/08/20 04:24:08;;;;;;;9.63;5.20;;;23.20;74.20;;;;;;4952255;28;20110;-88
2021/08/20 04:26:34;;;;;;;11.18;5.28;;;23.20;73.90;;;;;;4940138;29;20046;-94
2021/08/20 04:29:16;;;;;;;9.65;5.10;;;23.30;73.90;;;;;;4941215;29;20039;-91
2021/08/20 04:32:05;;;;;;;11.65;5.32;;;23.60;73.30;;;;;;4954214;29;20035;-92
2021/08/20 04:35:07;;;;;;;8.77;4.88;;;23.90;72.90;;;;;;4963932;28;20038;-92
2021/08/20 04:37:54;;;;;;;10.73;4.95;;;24.30;71.80;;;;;;4939687;29;20522;-91
2021/08/20 04:40:38;;;;;;;9.75;5.15;;;24.60;69.90;;;;;;4940228;29;20135;-91
2021/08/20 04:43:26;;;;;;;10.23;5.53;;;24.80;69.60;;;;;;4952712;28;20073;-83
2021/08/20 04:46:06;;;;;;;9.23;4.80;;;25.10;69.10;;;;;;4967088;28;20066;-87
2021/08/20 04:48:57;;;;;;;11.00;5.35;;;25.20;68.10;;;;;;4978117;28;20405;-88
2021/08/20 04:52:02;;;;;;;9.57;5.50;;;25.40;67.70;;;;;;4920987;29;20040;-84
2021/08/20 04:54:41;;;;;;;10.27;4.95;;;25.50;67.00;;;;;;4918266;29;20036;-89
2021/08/20 04:57:10;;;;;;;9.48;5.40;;;25.60;67.10;;;;;;4947619;28;20410;-85
2021/08/20 04:59:36;;;;;;;10.65;4.63;;;25.80;66.70;;;;;;4961051;28;20070;-84
2021/08/20 05:02:03;;;;;;;9.48;4.38;;;25.90;66.60;;;;;;4978842;28;20043;-85
2021/08/20 05:04:32;;;;;;;8.30;4.82;;;25.90;65.90;;;;;;4965010;28;20039;-84
2021/08/20 05:06:58;;;;;;;8.40;5.35;;;25.90;66.30;;;;;;4941555;29;20031;-84
2021/08/20 05:09:26;;;;;;;8.55;5.10;;;25.90;66.50;;;;;;4941860;29;20038;-84
2021/08/20 05:11:52;;;;;;;9.27;4.47;;;25.80;66.50;;;;;;4965267;28;20061;-84
2021/08/20 05:14:18;;;;;;;8.82;4.40;;;25.80;66.70;;;;;;4978839;28;20127;-85
2021/08/20 05:16:47;;;;;;;9.30;4.93;;;25.70;66.60;;;;;;4979654;28;20161;-84
2021/08/20 05:19:14;;;;;;;10.90;5.57;;;25.70;66.30;;;;;;4978948;28;20070;-84
2021/08/20 05:21:40;;;;;;;13.90;5.35;;;25.70;66.70;;;;;;4963332;28;20033;-85
2021/08/20 05:24:06;;;;;;;6.80;4.50;;;25.80;66.20;;;;;;4978999;28;20035;-86
2021/08/20 05:26:32;;;;;;;12.95;4.45;;;25.80;66.30;;;;;;4979154;28;20038;-86
2021/08/20 05:28:58;;;;;;;7.25;4.65;;;25.80;66.90;;;;;;4963119;28;20034;-86
2021/08/20 05:31:24;;;;;;;9.30;4.70;;;25.80;66.60;;;;;;4962092;28;20034;-86
2021/08/20 05:33:50;;;;;;;8.60;4.93;;;25.90;66.30;;;;;;4959408;28;20129;-86
2021/08/20 05:36:17;;;;;;;6.82;4.63;;;25.90;66.60;;;;;;4974897;28;20093;-86
2021/08/20 05:38:44;;;;;;;7.68;4.43;;;26.00;66.60;;;;;;4975087;28;20066;-86
2021/08/20 05:41:10;;;;;;;12.43;5.18;;;26.20;67.10;;;;;;4958946;28;20125;-87
2021/08/20 05:43:36;;;;;;;9.07;4.00;;;26.50;66.50;;;;;;4982065;28;20175;-86
2021/08/20 05:46:02;;;;;;;5.65;4.10;;;26.80;66.60;;;;;;4965114;28;20099;-89
2021/08/20 05:48:28;;;;;;;9.63;4.10;;;27.00;66.20;;;;;;4963040;28;20426;-88
2021/08/20 05:50:54;;;;;;;10.63;4.88;;;27.20;65.60;;;;;;4979239;28;20447;-88
2021/08/20 05:53:20;;;;;;;11.95;5.47;;;27.40;64.50;;;;;;4979254;28;20042;-86
2021/08/20 05:55:46;;;;;;;9.27;4.28;;;27.60;64.20;;;;;;4963485;28;20046;-85
2021/08/20 05:58:12;;;;;;;9.60;4.53;;;27.70;64.30;;;;;;4980389;28;20474;-86
2021/08/20 06:00:38;;;;;;;6.95;4.90;;;27.90;63.60;;;;;;4979673;28;20042;-85
2021/08/20 06:03:08;;;;;;;7.80;4.88;;;27.90;63.60;;;;;;4979055;28;20019;-85
2021/08/20 06:05:34;;;;;;;8.40;4.00;;;28.10;63.00;;;;;;4978929;28;20034;-85
2021/08/20 06:08:01;;;;;;;7.40;4.05;;;28.10;61.80;;;;;;4978885;28;20133;-86
2021/08/20 06:10:27;;;;;;;7.50;3.92;;;28.20;61.20;;;;;;4979405;28;20035;-86
2021/08/20 06:12:53;;;;;;;7.25;4.20;;;28.30;61.40;;;;;;4980769;28;20386;-86
2021/08/20 06:15:20;;;;;;;7.25;3.60;;;28.40;61.30;;;;;;4979325;28;20035;-86
2021/08/20 06:17:46;;;;;;;9.77;4.50;;;28.50;61.60;;;;;;4961816;28;20046;-84
2021/08/20 06:20:13;;;;;;;4.45;3.58;;;28.50;59.70;;;;;;4980194;28;20453;-83
2021/08/20 06:22:39;;;;;;;9.05;4.05;;;28.70;61.10;;;;;;4980385;28;20035;-86
2021/08/20 06:25:05;;;;;;;6.07;3.97;;;28.80;59.50;;;;;;4980279;28;20031;-85
2021/08/20 06:27:31;;;;;;;7.88;4.00;;;28.70;58.10;;;;;;4978339;28;20875;-89
2021/08/20 06:29:57;;;;;;;5.63;3.53;;;28.80;57.70;;;;;;4980370;28;20113;-90
2021/08/20 06:32:23;;;;;;;6.25;3.75;;;28.90;56.80;;;;;;4980591;28;20180;-87
2021/08/20 06:34:49;;;;;;;5.75;3.50;;;28.80;56.50;;;;;;4964330;28;20035;-88
2021/08/20 06:37:15;;;;;;;4.60;3.70;;;28.90;57.80;;;;;;4980899;28;20359;-95
2021/08/20 06:39:41;;;;;;;7.57;4.22;;;29.00;57.90;;;;;;4961747;29;20035;-90
2021/08/20 06:42:07;;;;;;;4.40;3.45;;;29.10;58.90;;;;;;4959864;29;20494;-86
2021/08/20 06:44:33;;;;;;;5.07;3.60;;;29.20;58.80;;;;;;4962047;28;20035;-91
2021/08/20 06:46:59;;;;;;;11.45;3.78;;;29.30;58.00;;;;;;4959719;28;20033;-87
2021/08/20 06:49:25;;;;;;;7.30;3.13;;;29.30;58.10;;;;;;4975997;28;20035;-87
2021/08/20 06:51:51;;;;;;;9.07;3.28;;;29.30;58.30;;;;;;4975868;28;20035;-87
2021/08/20 06:54:16;;;;;;;8.07;3.95;;;29.40;58.00;;;;;;4974192;28;20046;-89
2021/08/20 06:56:43;;;;;;;5.53;3.47;;;29.40;58.10;;;;;;4977939;28;20094;-88
2021/08/20 06:59:09;;;;;;;4.85;3.65;;;29.40;57.20;;;;;;4980764;28;20043;-86
2021/08/20 07:01:34;;;;;;;5.22;3.50;;;29.50;57.40;;;;;;4978237;28;20078;-88
2021/08/20 07:04:00;;;;;;;7.68;3.45;;;29.50;57.10;;;;;;4978823;28;20046;-85
2021/08/20 07:06:27;;;;;;;4.80;3.30;;;29.60;57.50;;;;;;4979837;28;20070;-86
2021/08/20 07:08:55;;;;;;;12.50;3.72;;;29.60;56.80;;;;;;4979240;28;20145;-89
2021/08/20 07:11:23;;;;;;;7.90;3.60;;;29.60;56.80;;;;;;4972812;28;20165;-94
2021/08/20 07:13:49;;;;;;;17.80;3.40;;;29.60;56.20;;;;;;4979788;28;20501;-92
2021/08/20 07:16:15;;;;;;;10.40;3.90;;;29.50;55.30;;;;;;4976880;28;20477;-94
2021/08/20 07:18:41;;;;;;;18.80;4.07;;;29.50;54.80;;;;;;4978446;28;20038;-83
2021/08/20 07:21:08;;;;;;;13.43;3.60;;;29.60;56.70;;;;;;4973590;28;20023;-83
2021/08/20 07:23:34;;;;;;;7.82;3.22;;;29.60;57.60;;;;;;4972587;28;20129;-80
2021/08/20 07:26:03;;;;;;;5.88;3.10;;;29.60;55.60;;;;;;4956463;28;20139;-84
2021/08/20 07:28:29;;;;;;;10.15;3.42;;;29.60;55.00;;;;;;4967742;28;20052;-83
2021/08/20 07:30:55;;;;;;;7.13;3.55;;;29.60;54.20;;;;;;4956967;28;20034;-82
2021/08/20 07:33:21;;;;;;;11.95;4.07;;;29.60;55.20;;;;;;4972590;28;20170;-82
2021/08/20 07:35:47;;;;;;;8.43;4.22;;;29.60;56.50;;;;;;4956503;28;20557;-81
2021/08/20 07:38:13;;;;;;;9.45;4.10;;;29.60;56.30;;;;;;4972704;28;20055;-91
2021/08/20 07:40:40;;;;;;;5.60;3.15;;;29.60;55.40;;;;;;4958272;28;20537;-86
2021/08/20 07:43:06;;;;;;;4.78;3.88;;;29.50;53.40;;;;;;4973052;28;20502;-82
2021/08/20 07:45:32;;;;;;;9.52;4.43;;;29.50;54.90;;;;;;4974880;28;20049;-86
2021/08/20 07:47:58;;;;;;;9.40;3.90;;;29.40;56.40;;;;;;4975441;28;20035;-85
2021/08/20 07:50:25;;;;;;;8.55;4.22;;;29.40;56.70;;;;;;4972873;28;20183;-85
2021/08/20 07:52:50;;;;;;;4.70;3.65;;;29.40;57.80;;;;;;4971902;28;20038;-83
2021/08/20 07:55:17;;;;;;;8.52;4.18;;;29.40;55.70;;;;;;4972248;28;20053;-86
2021/08/20 07:57:51;;;;;;;5.60;3.47;;;29.40;56.60;;;;;;4957791;28;20035;-86
2021/08/20 08:00:29;;;;;;;5.13;3.40;;;29.30;55.40;;;;;;4955872;28;20155;-86
2021/08/20 08:02:56;;;;;;;5.07;3.10;;;29.30;54.00;;;;;;4955631;29;20041;-88
2021/08/20 08:05:23;;;;;;;6.25;3.20;;;29.20;53.70;;;;;;4957156;28;20054;-89
2021/08/20 08:07:50;;;;;;;7.13;3.85;;;29.10;55.00;;;;;;4954597;29;20039;-82
2021/08/20 08:10:16;;;;;;;6.63;3.70;;;29.10;56.60;;;;;;4953175;28;20047;-83
2021/08/20 08:12:43;;;;;;;28.10;3.45;;;29.10;55.70;;;;;;4966388;28;20030;-85
2021/08/20 08:15:09;;;;;;;5.68;2.90;;;29.00;52.70;;;;;;4956739;28;20089;-83
2021/08/20 08:17:36;;;;;;;7.53;3.42;;;28.90;53.00;;;;;;4956993;28;20552;-84
2021/08/20 08:20:05;;;;;;;6.03;3.50;;;28.70;54.00;;;;;;4972490;28;20072;-84
2021/08/20 08:22:31;;;;;;;6.93;3.53;;;28.70;54.10;;;;;;4972302;28;20031;-86
2021/08/20 08:24:58;;;;;;;7.25;3.63;;;28.70;54.30;;;;;;4956051;28;20436;-81
2021/08/20 08:27:24;;;;;;;6.68;3.47;;;28.70;54.70;;;;;;4957644;28;20034;-86
2021/08/20 08:29:49;;;;;;;11.77;3.45;;;28.70;53.60;;;;;;4977602;28;20039;-85
2021/08/20 08:32:16;;;;;;;4.90;3.38;;;28.70;54.10;;;;;;4975029;28;20039;-89
2021/08/20 08:34:42;;;;;;;3.78;3.40;;;28.70;53.70;;;;;;4979915;28;20098;-87
2021/08/20 08:37:08;;;;;;;4.82;3.58;;;28.60;53.60;;;;;;4962391;28;20042;-87
2021/08/20 08:39:34;;;;;;;5.45;3.13;;;28.60;53.90;;;;;;4978135;28;20046;-87
2021/08/20 08:42:04;;;;;;;6.22;3.38;;;28.60;54.20;;;;;;4967874;28;20097;-94
2021/08/20 08:44:32;;;;;;;5.68;3.13;;;28.50;53.10;;;;;;4974840;28;20027;-93
2021/08/20 08:47:03;;;;;;;5.97;3.50;;;28.40;52.30;;;;;;4971501;28;20070;-93
2021/08/20 08:50:44;;;;;;;;;;;;;;;;;;;;;
2021/08/20 08:53:14;;;;;;;4.68;3.25;;;28.40;54.20;;;;;;4985663;28;20101;-84
2021/08/20 08:55:47;;;;;;;6.88;3.70;;;28.40;54.60;;;;;;4979354;28;20046;-84
2021/08/20 08:58:13;;;;;;;6.72;3.28;;;28.40;54.90;;;;;;4963688;28;20038;-86
2021/08/20 09:00:39;;;;;;;5.13;3.50;;;28.50;55.30;;;;;;4979641;28;20085;-84
2021/08/20 09:03:06;;;;;;;5.35;3.20;;;28.40;55.10;;;;;;4961077;28;20061;-85
2021/08/20 09:05:43;;;;;;;7.28;3.67;;;28.50;55.80;;;;;;4960327;28;20050;-83
2021/08/20 09:08:18;;;;;;;7.40;3.40;;;28.40;54.90;;;;;;4962172;28;20382;-80
2021/08/20 09:10:48;;;;;;;;;;;28.40;55.40;;;;;;4989757;28;20035;-84
2021/08/20 09:13:14;;;;;;;3.85;3.00;;;28.40;55.20;;;;;;4959669;28;20000;-82
2021/08/20 09:15:41;;;;;;;5.70;3.20;;;28.30;54.60;;;;;;4976038;28;20042;-84
2021/08/20 09:18:09;;;;;;;4.82;3.10;;;28.40;54.80;;;;;;4975547;28;20035;-86
2021/08/20 09:20:39;;;;;;;10.48;3.47;;;28.30;54.30;;;;;;4959356;28;20613;-80
2021/08/20 09:23:25;;;;;;;7.95;3.88;;;28.30;54.80;;;;;;4976239;28;20039;-83
2021/08/20 09:25:53;;;;;;;7.93;3.65;;;28.30;55.00;;;;;;4976339;28;20486;-90
2021/08/20 09:28:22;;;;;;;4.18;3.13;;;28.30;56.00;;;;;;4979029;28;20121;-91
2021/08/20 09:30:54;;;;;;;7.57;3.70;;;28.20;54.10;;;;;;4979945;28;20034;-87
2021/08/20 09:33:29;;;;;;;4.50;3.22;;;28.10;54.30;;;;;;4961477;28;20050;-83
2021/08/20 09:36:12;;;;;;;4.38;3.17;;;28.10;53.90;;;;;;4976371;28;20482;-84
2021/08/20 09:38:45;;;;;;;8.45;3.70;;;28.00;53.00;;;;;;4978909;28;20059;-84
2021/08/20 09:41:14;;;;;;;5.55;3.42;;;27.90;52.20;;;;;;4975090;28;20121;-82
2021/08/20 09:43:42;;;;;;;9.90;3.65;;;27.80;53.00;;;;;;4974254;28;20034;-81
2021/08/20 09:46:10;;;;;;;8.05;3.42;;;27.80;54.60;;;;;;4974158;28;20038;-82
2021/08/20 09:48:59;;;;;;;7.32;3.05;;;27.90;54.00;;;;;;4958519;28;20043;-82
2021/08/20 09:51:39;;;;;;;6.35;3.60;;;27.90;54.20;;;;;;4974618;28;20043;-82
2021/08/20 09:54:12;;;;;;;5.57;3.50;;;27.80;53.20;;;;;;4958521;28;20166;-81
2021/08/20 09:56:39;;;;;;;5.53;3.50;;;27.80;53.30;;;;;;4974114;28;20077;-81
2021/08/20 09:59:08;;;;;;;5.60;3.08;;;27.70;51.40;;;;;;4974603;28;20474;-81
2021/08/20 10:01:36;;;;;;;6.82;3.47;;;27.60;50.30;;;;;;4974579;28;20042;-80
2021/08/20 10:04:04;;;;;;;5.25;3.05;;;27.60;50.70;;;;;;4975650;28;20034;-81
2021/08/20 10:06:50;;;;;;;5.90;3.20;;;27.50;50.20;;;;;;4974345;28;20097;-80
2021/08/20 10:09:18;;;;;;;5.03;3.47;;;27.50;51.80;;;;;;4974043;28;20050;-82
2021/08/20 10:11:52;;;;;;;6.85;3.42;;;27.40;51.10;;;;;;4975309;28;20038;-82
2021/08/20 10:14:24;;;;;;;5.93;3.47;;;27.30;51.20;;;;;;4975730;28;20041;-82
2021/08/20 10:16:50;;;;;;;6.85;3.78;;;27.30;52.50;;;;;;4977007;28;20186;-81
2021/08/20 10:19:16;;;;;;;11.43;3.38;;;27.40;52.40;;;;;;4958095;29;20075;-86
2021/08/20 10:21:44;;;;;;;5.30;3.53;;;27.30;53.40;;;;;;4972903;28;20031;-82
2021/08/20 10:24:13;;;;;;;5.30;3.30;;;27.30;52.70;;;;;;4958199;28;20117;-82
2021/08/20 10:26:44;;;;;;;4.13;3.50;;;27.40;52.80;;;;;;4973931;28;20580;-82
2021/08/20 10:29:11;;;;;;;6.45;3.50;;;27.40;52.20;;;;;;4957267;28;20133;-82
2021/08/20 10:31:40;;;;;;;6.97;3.60;;;27.30;51.70;;;;;;4956817;28;20031;-82
2021/08/20 10:34:31;;;;;;;7.25;3.53;;;27.30;53.00;;;;;;4956666;28;20031;-82
2021/08/20 10:37:23;;;;;;;6.03;3.45;;;27.30;53.10;;;;;;4972926;28;20034;-82
2021/08/20 10:39:52;;;;;;;4.28;3.13;;;27.30;52.80;;;;;;4974901;28;20047;-82
2021/08/20 10:42:20;;;;;;;4.20;2.95;;;27.40;52.30;;;;;;4973905;28;20045;-82
2021/08/20 10:44:51;;;;;;;6.13;3.20;;;27.30;52.60;;;;;;4974676;28;20027;-82
2021/08/20 10:47:25;;;;;;;3.80;3.42;;;27.20;53.50;;;;;;4957702;28;20034;-81
2021/08/20 10:50:05;;;;;;;3.53;3.15;;;27.30;54.40;;;;;;4973070;28;20119;-81
2021/08/20 10:52:33;;;;;;;6.22;3.38;;;27.30;53.60;;;;;;4974760;28;20045;-81
2021/08/20 10:54:59;;;;;;;4.85;3.45;;;27.30;54.00;;;;;;4973501;28;20174;-82
2021/08/20 10:57:34;;;;;;;5.00;4.00;;;27.30;53.90;;;;;;4972896;28;20521;-82
2021/08/20 11:00:00;;;;;;;6.40;3.08;;;27.40;53.20;;;;;;4973335;28;20035;-83
2021/08/20 11:02:26;;;;;;;5.38;3.05;;;27.30;53.80;;;;;;4974692;28;20517;-82
2021/08/20 11:05:08;;;;;;;4.85;3.20;;;27.40;54.30;;;;;;4974593;28;20034;-82
2021/08/20 11:07:37;;;;;;;5.97;3.05;;;27.40;54.00;;;;;;4973432;28;20038;-83
2021/08/20 11:10:09;;;;;;;4.18;3.20;;;27.40;54.90;;;;;;4957186;28;20026;-83
2021/08/20 11:12:48;;;;;;;3.50;2.90;;;27.40;54.90;;;;;;4973487;28;20033;-81
2021/08/20 11:15:17;;;;;;;6.15;3.22;;;27.40;53.70;;;;;;4973353;28;20034;-81
2021/08/20 11:17:50;;;;;;;3.83;2.80;;;27.30;53.60;;;;;;4974689;28;20120;-80
2021/08/20 11:20:41;;;;;;;5.57;3.08;;;27.30;54.00;;;;;;4974205;28;20410;-82
2021/08/20 11:23:10;;;;;;;4.47;3.10;;;27.40;54.30;;;;;;4973424;28;20422;-82
2021/08/20 11:25:46;;;;;;;5.72;3.00;;;27.40;54.70;;;;;;4973319;28;20035;-82
2021/08/20 11:28:17;;;;;;;4.78;2.83;;;27.40;53.80;;;;;;4973100;28;20066;-82
2021/08/20 11:31:08;;;;;;;4.68;3.20;;;27.40;53.00;;;;;;4974566;28;20129;-82
2021/08/20 11:33:39;;;;;;;3.60;3.15;;;27.30;52.80;;;;;;4957231;28;20089;-82
2021/08/20 11:36:13;;;;;;;5.25;3.10;;;27.30;53.80;;;;;;4973136;28;20065;-81
2021/08/20 11:38:43;;;;;;;3.85;2.90;;;27.40;54.00;;;;;;4972559;28;20050;-81
2021/08/20 11:41:22;;;;;;;6.03;2.88;;;27.30;55.20;;;;;;4974291;28;20093;-82
2021/08/20 11:43:56;;;;;;;3.50;2.45;;;27.30;54.40;;;;;;4971680;28;20066;-82
2021/08/20 11:46:36;;;;;;;4.10;2.60;;;27.30;52.40;;;;;;4974436;28;20062;-82
2021/08/20 11:49:06;;;;;;;4.18;2.83;;;27.20;52.20;;;;;;4974483;28;20486;-82
2021/08/20 11:51:45;;;;;;;3.90;3.00;;;27.20;53.00;;;;;;4940934;28;20066;-82
2021/08/20 11:54:15;;;;;;;5.45;2.70;;;27.10;51.60;;;;;;4970752;28;20050;-81
2021/08/20 11:56:55;;;;;;;4.05;3.38;;;27.10;52.00;;;;;;4957274;28;20469;-82
2021/08/20 11:59:22;;;;;;;3.53;2.70;;;27.10;52.60;;;;;;4957879;28;20095;-82
2021/08/20 12:01:55;;;;;;;4.32;2.60;;;27.10;51.70;;;;;;4959643;28;20042;-82
2021/08/20 12:04:29;;;;;;;5.03;2.50;;;27.10;51.30;;;;;;4963894;28;20050;-84
2021/08/20 12:06:59;;;;;;;5.22;3.05;;;27.10;51.10;;;;;;4978631;28;20046;-86
2021/08/20 12:09:54;;;;;;;2.92;2.47;;;27.10;51.80;;;;;;4984460;28;20034;-85
2021/08/20 12:13:05;;;;;;;4.57;3.03;;;27.10;52.60;;;;;;4984239;28;20042;-89
2021/08/20 12:28:18;;;;;;;5.72;2.92;;;27.10;52.50;;;;;;4869004;29;20037;-86
2021/08/20 12:34:45;;;;;;;;;;;;;;;;;;;;;
2021/08/20 12:37:39;;;;;;;4.25;2.55;;;27.10;52.70;;;;;;4871812;29;20175;-89
2021/08/20 12:40:22;;;;;;;4.15;3.15;;;27.20;53.00;;;;;;4862828;29;20155;-86
2021/08/20 12:42:58;;;;;;;4.07;2.85;;;27.10;53.00;;;;;;4914333;28;20072;-89
2021/08/20 12:46:05;;;;;;;4.60;3.28;;;27.10;53.10;;;;;;4969337;28;20041;-89
2021/08/20 12:48:34;;;;;;;5.85;3.03;;;27.10;53.00;;;;;;4984207;28;20034;-84
2021/08/20 12:51:06;;;;;;;4.32;2.60;;;27.10;53.00;;;;;;4985173;28;20520;-90
2021/08/20 12:53:42;;;;;;;3.53;2.80;;;27.20;54.30;;;;;;4967612;28;20039;-87
2021/08/20 12:56:30;;;;;;;4.47;2.60;;;27.20;54.90;;;;;;4984597;28;20047;-89
2021/08/20 12:59:51;;;;;;;3.92;2.90;;;27.20;54.60;;;;;;4982250;28;20106;-89
2021/08/20 13:10:53;;;;;;;2.72;2.38;;;27.30;55.50;;;;;;3248344;23;20332;-88
2021/08/20 13:13:32;;;;;;;3.47;2.85;;;27.30;55.30;;;;;;4968558;28;20070;-91
2021/08/20 13:16:13;;;;;;;5.90;3.10;;;27.30;55.70;;;;;;4972427;29;20105;-90
2021/08/20 13:27:14;;;;;;;3.60;2.67;;;27.10;52.80;;;;;;4979057;28;20057;-88
2021/08/20 13:33:49;;;;;;;3.30;2.60;;;27.10;52.40;;;;;;4975415;28;20144;-94
2021/08/20 13:40:35;;;;;;;3.67;2.50;;;27.00;53.00;;;;;;4954905;29;20477;-92
2021/08/20 13:43:29;;;;;;;10.05;3.10;;;27.10;53.60;;;;;;4944552;29;20028;-90
2021/08/20 13:46:01;;;;;;;7.15;3.25;;;27.00;53.50;;;;;;4954299;29;20067;-89
2021/08/20 13:48:55;;;;;;;5.93;2.80;;;27.00;53.60;;;;;;4942231;29;20050;-92
2021/08/20 13:51:21;;;;;;;5.95;3.35;;;27.00;53.90;;;;;;4963105;28;20138;-85
2021/08/20 13:53:47;;;;;;;5.35;3.30;;;27.00;54.50;;;;;;4980416;28;20034;-86
2021/08/20 13:59:55;;;;;;;3.50;2.42;;;27.00;52.90;;;;;;4970333;28;20030;-90
2021/08/20 14:02:24;;;;;;;4.72;2.85;;;26.90;52.60;;;;;;4988025;28;20027;-89
2021/08/20 14:08:03;;;;;;;3.72;2.45;;;26.90;52.70;;;;;;4979224;28;20042;-81
2021/08/20 14:10:56;;;;;;;3.50;2.60;;;26.90;53.20;;;;;;4979784;28;20070;-88